Time;durP1;ratioP1;P1;durP2;ratioP2;P2;SDS_P1;SDS_P2;PMS_P1;PMS_P2;Temp;Humidity;BMP_temperature;BMP_pressure;BME280_temperature;BME280_humidity;BME280_pressure;Samples;Min_cycle;Max_cycle;Signal;HPM_P1;HPM_P2
2022/12/13 00:01:11;;;;;;;;;;;19.30;39.20;;;;;;5016172;28;20046;-54
2022/12/13 00:03:36;;;;;;;;;;;19.30;39.00;;;;;;5003388;28;19918;-54
2022/12/13 00:06:05;;;;;;;;;;;19.40;38.90;;;;;;5001350;28;19939;-55
2022/12/13 00:08:31;;;;;;;;;;;19.40;38.80;;;;;;5005556;28;19921;-54
2022/12/13 00:11:00;;;;;;;;;;;19.50;38.60;;;;;;4987129;28;19917;-54
2022/12/13 00:13:25;;;;;;;;;;;19.50;38.40;;;;;;5003874;28;19914;-54
2022/12/13 00:15:57;;;;;;;;;;;19.50;38.50;;;;;;5002201;28;19918;-52
2022/12/13 00:18:23;;;;;;;;;;;19.50;38.40;;;;;;5014040;28;19952;-54
2022/12/13 00:20:48;;;;;;;;;;;19.40;38.30;;;;;;5020610;28;19975;-54
2022/12/13 00:23:14;;;;;;;;;;;19.40;38.50;;;;;;5006212;28;19928;-53
2022/12/13 00:25:39;;;;;;;;;;;19.40;38.60;;;;;;5002483;28;19925;-53
2022/12/13 00:28:05;;;;;;;;;;;19.30;38.50;;;;;;5002871;28;20370;-53
2022/12/13 00:30:30;;;;;;;;;;;19.30;38.40;;;;;;5003857;28;19922;-54
2022/12/13 00:32:56;;;;;;;;;;;19.30;38.70;;;;;;5001340;28;19945;-55
2022/12/13 00:35:21;;;;;;;;;;;19.20;38.70;;;;;;5000658;28;19975;-53
2022/12/13 00:37:46;;;;;;;;;;;19.10;38.30;;;;;;5003042;28;19918;-53
2022/12/13 00:40:12;;;;;;;;;;;19.10;38.30;;;;;;5008321;28;19913;-54
2022/12/13 00:42:37;;;;;;;;;;;19.00;38.50;;;;;;5000399;28;19924;-54
2022/12/13 00:45:03;;;;;;;;;;;19.00;38.90;;;;;;5002435;28;19937;-56
2022/12/13 00:47:29;;;;;;;;;;;19.00;38.60;;;;;;5013990;28;20004;-53
2022/12/13 00:49:54;;;;;;;;;;;19.00;39.00;;;;;;5003040;28;20375;-53
2022/12/13 00:52:19;;;;;;;;;;;19.00;38.90;;;;;;5001766;28;19921;-54
2022/12/13 00:54:45;;;;;;;;;;;19.10;39.00;;;;;;5001175;28;19979;-53
2022/12/13 00:57:10;;;;;;;;;;;19.10;38.80;;;;;;5001448;28;21828;-55
2022/12/13 00:59:36;;;;;;;;;;;19.10;38.80;;;;;;5002332;28;20374;-54
2022/12/13 01:02:01;;;;;;;;;;;19.20;38.60;;;;;;5002949;28;19917;-54
2022/12/13 01:04:27;;;;;;;;;;;19.20;38.70;;;;;;5006203;28;20005;-53
2022/12/13 01:06:54;;;;;;;;;;;19.20;38.50;;;;;;5013738;28;19957;-54
2022/12/13 01:09:20;;;;;;;;;;;19.30;38.40;;;;;;5008403;28;20349;-53
2022/12/13 01:11:45;;;;;;;;;;;19.30;38.30;;;;;;5003675;28;19989;-53
2022/12/13 01:14:11;;;;;;;;;;;19.40;38.20;;;;;;5003258;28;19996;-54
2022/12/13 01:16:36;;;;;;;;;;;19.40;38.20;;;;;;5006050;28;20320;-53
2022/12/13 01:19:02;;;;;;;;;;;19.40;38.00;;;;;;5008428;28;20378;-55
2022/12/13 01:21:27;;;;;;;;;;;19.30;38.00;;;;;;4990853;28;19936;-54
2022/12/13 01:23:54;;;;;;;;;;;19.30;38.00;;;;;;5002487;28;19918;-53
2022/12/13 01:26:21;;;;;;;;;;;19.30;37.60;;;;;;5006825;28;21304;-54
2022/12/13 01:28:47;;;;;;;;;;;19.20;37.90;;;;;;5010676;28;20279;-55
2022/12/13 01:31:13;;;;;;;;;;;19.10;38.00;;;;;;5008262;28;19967;-53
2022/12/13 01:33:38;;;;;;;;;;;19.10;37.80;;;;;;5005452;28;20005;-53
2022/12/13 01:36:04;;;;;;;;;;;19.00;38.10;;;;;;5016447;28;20020;-54
2022/12/13 01:38:30;;;;;;;;;;;19.10;39.00;;;;;;5018678;28;19922;-52
2022/12/13 01:40:58;;;;;;;;;;;19.00;38.40;;;;;;5004269;28;19957;-53
2022/12/13 01:43:25;;;;;;;;;;;19.00;38.50;;;;;;5002415;28;19918;-55
2022/12/13 01:45:50;;;;;;;;;;;19.10;38.40;;;;;;5001470;28;19927;-54
2022/12/13 01:48:17;;;;;;;;;;;19.10;38.40;;;;;;5003650;28;19914;-55
2022/12/13 01:50:43;;;;;;;;;;;19.10;38.20;;;;;;4989790;28;19974;-53
2022/12/13 01:53:10;;;;;;;;;;;19.20;38.20;;;;;;4990300;28;19913;-54
2022/12/13 01:55:36;;;;;;;;;;;19.20;38.20;;;;;;4991656;28;19917;-53
2022/12/13 01:58:02;;;;;;;;;;;19.30;38.20;;;;;;4994626;28;20285;-53
2022/12/13 02:00:27;;;;;;;;;;;19.30;38.20;;;;;;5004496;28;20385;-54
2022/12/13 02:02:53;;;;;;;;;;;19.20;37.90;;;;;;5014487;28;20016;-53
2022/12/13 02:05:18;;;;;;;;;;;19.20;38.10;;;;;;5014557;28;19921;-53
2022/12/13 02:07:44;;;;;;;;;;;19.20;38.10;;;;;;5007867;28;19918;-54
2022/12/13 02:10:09;;;;;;;;;;;19.10;38.10;;;;;;5009489;28;19941;-53
2022/12/13 02:12:35;;;;;;;;;;;19.10;38.00;;;;;;5003183;28;19914;-53
2022/12/13 02:15:27;;;;;;;;;;;19.10;38.00;;;;;;5008297;28;19913;-53
2022/12/13 02:17:52;;;;;;;;;;;19.10;38.20;;;;;;5009663;28;20044;-54
2022/12/13 02:20:23;;;;;;;;;;;19.10;38.10;;;;;;5015413;28;20026;-54
2022/12/13 02:22:58;;;;;;;;;;;19.00;37.50;;;;;;5002375;28;20025;-54
2022/12/13 02:25:35;;;;;;;;;;;19.00;38.10;;;;;;5004078;28;20284;-54
2022/12/13 02:28:13;;;;;;;;;;;19.00;38.00;;;;;;4991168;28;19913;-53
2022/12/13 02:30:40;;;;;;;;;;;19.00;38.00;;;;;;5004942;28;20374;-53
2022/12/13 02:33:11;;;;;;;;;;;19.00;37.90;;;;;;4988271;28;19922;-52
2022/12/13 02:35:46;;;;;;;;;;;19.10;37.90;;;;;;4990091;28;19948;-53
2022/12/13 02:38:35;;;;;;;;;;;19.10;37.80;;;;;;4987831;28;19914;-53
2022/12/13 02:41:00;;;;;;;;;;;19.10;37.80;;;;;;4989619;28;20016;-54
2022/12/13 02:43:31;;;;;;;;;;;19.20;37.70;;;;;;5001090;28;20111;-53
2022/12/13 02:45:57;;;;;;;;;;;19.20;37.70;;;;;;4989274;28;20008;-54
2022/12/13 02:48:24;;;;;;;;;;;19.20;37.60;;;;;;4988471;28;19926;-54
2022/12/13 02:50:49;;;;;;;;;;;19.20;37.60;;;;;;4990113;28;19917;-54
2022/12/13 02:53:15;;;;;;;;;;;19.10;37.70;;;;;;5009952;28;19920;-54
2022/12/13 02:55:41;;;;;;;;;;;19.10;37.60;;;;;;5003237;28;20357;-53
2022/12/13 02:58:06;;;;;;;;;;;19.10;37.80;;;;;;5004142;28;19917;-56
2022/12/13 03:00:50;;;;;;;;;;;19.00;37.80;;;;;;5002137;28;20553;-54
2022/12/13 03:03:17;;;;;;;;;;;19.00;38.00;;;;;;5004071;28;19926;-54
2022/12/13 03:09:07;;;;;;;;;;;18.80;38.10;;;;;;4933514;28;20424;-53
2022/12/13 03:14:22;;;;;;;;;;;18.70;38.20;;;;;;4932228;28;19922;-53
2022/12/13 03:16:48;;;;;;;;;;;18.70;38.20;;;;;;4928714;28;19915;-53
2022/12/13 03:19:13;;;;;;;;;;;18.70;38.10;;;;;;4992607;28;19926;-53
2022/12/13 03:21:39;;;;;;;;;;;18.70;37.90;;;;;;5008196;28;19925;-54
2022/12/13 03:24:05;;;;;;;;;;;18.80;37.90;;;;;;5002009;28;19918;-54
2022/12/13 03:26:30;;;;;;;;;;;18.90;37.50;;;;;;5002504;28;19921;-54
2022/12/13 03:28:56;;;;;;;;;;;19.10;37.30;;;;;;5003819;28;19965;-53
2022/12/13 03:31:21;;;;;;;;;;;19.30;37.10;;;;;;5004015;28;19998;-53
2022/12/13 03:33:47;;;;;;;;;;;19.40;36.70;;;;;;5001095;28;19921;-53
2022/12/13 03:36:12;;;;;;;;;;;19.50;36.40;;;;;;5003858;28;19914;-52
2022/12/13 03:38:39;;;;;;;;;;;19.60;36.20;;;;;;5003723;28;19921;-53
2022/12/13 03:41:06;;;;;;;;;;;19.70;36.30;;;;;;4989389;28;20318;-55
2022/12/13 03:43:32;;;;;;;;;;;19.60;36.40;;;;;;5003362;28;19928;-54
2022/12/13 03:45:57;;;;;;;;;;;19.60;36.40;;;;;;5001088;28;19918;-53
2022/12/13 03:48:23;;;;;;;;;;;19.50;36.50;;;;;;4988932;28;19913;-54
2022/12/13 03:50:51;;;;;;;;;;;19.40;36.70;;;;;;5008973;28;19921;-54
2022/12/13 03:53:17;;;;;;;;;;;19.30;36.90;;;;;;4998881;28;19924;-53
2022/12/13 03:55:42;;;;;;;;;;;19.20;36.90;;;;;;5001688;28;19921;-52
2022/12/13 03:58:08;;;;;;;;;;;19.10;37.20;;;;;;5018008;28;19912;-53
2022/12/13 04:00:33;;;;;;;;;;;18.90;37.20;;;;;;5003511;28;19920;-55
2022/12/13 04:02:59;;;;;;;;;;;18.80;37.40;;;;;;5004500;28;19923;-53
2022/12/13 04:05:24;;;;;;;;;;;18.70;37.30;;;;;;5001140;28;19989;-52
2022/12/13 04:07:50;;;;;;;;;;;18.70;37.20;;;;;;5000108;28;19914;-53
2022/12/13 04:10:15;;;;;;;;;;;18.60;37.90;;;;;;5012253;28;19919;-54
2022/12/13 04:15:25;;;;;;;;;;;18.60;38.00;;;;;;4998743;28;19924;-53
2022/12/13 04:17:50;;;;;;;;;;;18.70;37.90;;;;;;4999591;28;19914;-53
2022/12/13 04:20:15;;;;;;;;;;;18.70;37.70;;;;;;5005662;28;19920;-53
2022/12/13 04:22:41;;;;;;;;;;;18.80;37.50;;;;;;4999002;28;19926;-53
2022/12/13 04:25:06;;;;;;;;;;;19.00;37.20;;;;;;5001361;28;19961;-54
2022/12/13 04:27:32;;;;;;;;;;;19.10;36.90;;;;;;5002885;28;19913;-52
2022/12/13 04:29:57;;;;;;;;;;;19.20;36.70;;;;;;5003262;28;19921;-53
2022/12/13 04:32:23;;;;;;;;;;;19.30;36.30;;;;;;5002646;28;19921;-54
2022/12/13 04:34:48;;;;;;;;;;;19.40;36.30;;;;;;4998147;28;19921;-54
2022/12/13 04:37:14;;;;;;;;;;;19.50;36.30;;;;;;5000405;28;19957;-53
2022/12/13 04:39:39;;;;;;;;;;;19.50;36.20;;;;;;5008287;28;20345;-55
2022/12/13 04:42:04;;;;;;;;;;;19.40;36.10;;;;;;5013189;28;20375;-54
2022/12/13 04:44:30;;;;;;;;;;;19.30;36.40;;;;;;5014047;28;20392;-54
2022/12/13 04:46:55;;;;;;;;;;;19.30;36.50;;;;;;5001641;28;19924;-54
2022/12/13 04:49:21;;;;;;;;;;;19.20;36.60;;;;;;4999685;28;20306;-54
2022/12/13 04:51:46;;;;;;;;;;;19.10;36.70;;;;;;5001676;28;20408;-53
2022/12/13 04:54:12;;;;;;;;;;;19.00;36.80;;;;;;5002590;28;20402;-53
2022/12/13 04:56:37;;;;;;;;;;;18.90;36.90;;;;;;5001280;28;20009;-54
2022/12/13 04:59:03;;;;;;;;;;;18.90;37.20;;;;;;5005011;28;19968;-53
2022/12/13 05:01:28;;;;;;;;;;;18.80;37.30;;;;;;5004082;28;19914;-52
2022/12/13 05:03:53;;;;;;;;;;;18.70;37.40;;;;;;5001384;28;19918;-53
2022/12/13 05:06:19;;;;;;;;;;;18.70;37.40;;;;;;5002761;28;19917;-53
2022/12/13 05:08:45;;;;;;;;;;;18.70;37.50;;;;;;5011808;28;19945;-53
2022/12/13 05:11:10;;;;;;;;;;;18.70;37.60;;;;;;5009704;28;20000;-53
2022/12/13 05:13:36;;;;;;;;;;;18.70;37.40;;;;;;5000426;28;19967;-54
2022/12/13 05:16:02;;;;;;;;;;;18.70;37.40;;;;;;5007014;28;19921;-53
2022/12/13 05:18:28;;;;;;;;;;;18.80;37.30;;;;;;5002487;28;19921;-52
2022/12/13 05:20:53;;;;;;;;;;;18.90;37.20;;;;;;5013535;28;19920;-53
2022/12/13 05:23:19;;;;;;;;;;;19.00;36.90;;;;;;5004764;28;19923;-53
2022/12/13 05:25:44;;;;;;;;;;;19.10;36.60;;;;;;5003287;28;19922;-53
2022/12/13 05:28:10;;;;;;;;;;;19.20;36.40;;;;;;4998431;28;20400;-54
2022/12/13 05:30:39;;;;;;;;;;;19.20;36.30;;;;;;5000485;28;19924;-55
2022/12/13 05:33:04;;;;;;;;;;;19.30;36.00;;;;;;5000061;28;19921;-54
2022/12/13 05:35:30;;;;;;;;;;;19.30;36.00;;;;;;4999313;28;19914;-53
2022/12/13 05:37:55;;;;;;;;;;;19.40;36.00;;;;;;5001179;28;19948;-54
2022/12/13 05:40:24;;;;;;;;;;;19.30;36.10;;;;;;5002585;28;19913;-53
2022/12/13 05:42:49;;;;;;;;;;;19.30;36.20;;;;;;5000937;28;19971;-54
2022/12/13 05:45:16;;;;;;;;;;;19.20;36.20;;;;;;5005159;28;19914;-54
2022/12/13 05:47:41;;;;;;;;;;;19.10;36.30;;;;;;5002034;28;19957;-53
2022/12/13 05:50:06;;;;;;;;;;;19.00;36.40;;;;;;5011361;28;19964;-52
2022/12/13 05:52:32;;;;;;;;;;;19.00;36.70;;;;;;5003688;28;19929;-54
2022/12/13 05:54:57;;;;;;;;;;;18.90;36.90;;;;;;5002563;28;19921;-53
2022/12/13 05:57:23;;;;;;;;;;;18.80;37.00;;;;;;5006406;28;19963;-54
2022/12/13 05:59:48;;;;;;;;;;;18.70;37.10;;;;;;5003459;28;19914;-53
2022/12/13 06:02:14;;;;;;;;;;;18.70;37.30;;;;;;5003515;28;19918;-53
2022/12/13 06:04:40;;;;;;;;;;;18.60;37.30;;;;;;5005082;28;19967;-53
2022/12/13 06:07:05;;;;;;;;;;;18.60;37.40;;;;;;5003790;28;19993;-52
2022/12/13 06:09:31;;;;;;;;;;;18.60;37.40;;;;;;5001272;28;19971;-54
2022/12/13 06:11:56;;;;;;;;;;;18.60;37.30;;;;;;5011702;28;19912;-53
2022/12/13 06:14:22;;;;;;;;;;;18.70;37.20;;;;;;5022166;28;19918;-54
2022/12/13 06:16:47;;;;;;;;;;;18.80;37.10;;;;;;5004562;28;19922;-53
2022/12/13 06:19:13;;;;;;;;;;;18.90;36.80;;;;;;5005511;28;20008;-54
2022/12/13 06:21:38;;;;;;;;;;;19.00;36.60;;;;;;5005518;28;20003;-53
2022/12/13 06:24:04;;;;;;;;;;;19.10;36.40;;;;;;5003751;28;20368;-53
2022/12/13 06:26:30;;;;;;;;;;;19.20;36.20;;;;;;5002761;28;20365;-55
2022/12/13 06:28:55;;;;;;;;;;;19.20;35.90;;;;;;5009604;28;19921;-54
2022/12/13 06:31:20;;;;;;;;;;;19.30;35.90;;;;;;5009768;28;20304;-54
2022/12/13 06:33:46;;;;;;;;;;;19.30;36.30;;;;;;5001966;28;19921;-54
2022/12/13 06:36:11;;;;;;;;;;;19.30;35.80;;;;;;5002887;28;19917;-53
2022/12/13 06:38:37;;;;;;;;;;;19.30;36.00;;;;;;5001459;28;19940;-52
2022/12/13 06:41:06;;;;;;;;;;;19.20;36.10;;;;;;5004372;28;19983;-54
2022/12/13 06:43:32;;;;;;;;;;;19.10;36.20;;;;;;5002810;28;19921;-54
2022/12/13 06:45:57;;;;;;;;;;;19.00;36.40;;;;;;5002544;28;20439;-54
2022/12/13 06:48:23;;;;;;;;;;;18.90;36.40;;;;;;5010152;28;20397;-54
2022/12/13 06:50:48;;;;;;;;;;;18.80;36.70;;;;;;5012461;28;19914;-53
2022/12/13 06:53:14;;;;;;;;;;;18.80;36.90;;;;;;5003609;28;19913;-53
2022/12/13 06:55:39;;;;;;;;;;;18.70;37.00;;;;;;5004986;28;19921;-54
2022/12/13 06:58:05;;;;;;;;;;;18.60;37.10;;;;;;5008024;28;19974;-53
2022/12/13 07:00:30;;;;;;;;;;;18.60;37.00;;;;;;5005067;28;20004;-54
2022/12/13 07:02:56;;;;;;;;;;;18.60;37.20;;;;;;5003103;28;19917;-53
2022/12/13 07:05:21;;;;;;;;;;;18.60;37.30;;;;;;5007457;28;19954;-53
2022/12/13 07:07:47;;;;;;;;;;;18.70;37.00;;;;;;5003119;28;20467;-54
2022/12/13 07:10:12;;;;;;;;;;;18.70;37.10;;;;;;5002846;28;19962;-54
2022/12/13 07:12:38;;;;;;;;;;;18.80;36.80;;;;;;5018140;28;19918;-54
2022/12/13 07:15:04;;;;;;;;;;;18.90;36.80;;;;;;5004295;28;19922;-54
2022/12/13 07:17:29;;;;;;;;;;;19.00;36.60;;;;;;5009957;28;19918;-54
2022/12/13 07:19:55;;;;;;;;;;;19.10;36.40;;;;;;5010942;28;20050;-53
2022/12/13 07:22:20;;;;;;;;;;;19.10;36.30;;;;;;5003938;28;19980;-53
2022/12/13 07:24:46;;;;;;;;;;;19.20;36.10;;;;;;5023764;28;19996;-55
2022/12/13 07:27:11;;;;;;;;;;;19.20;36.20;;;;;;5006314;28;19925;-54
2022/12/13 07:29:37;;;;;;;;;;;19.20;36.30;;;;;;5013905;28;19925;-55
2022/12/13 07:32:02;;;;;;;;;;;19.10;36.40;;;;;;5017201;28;19924;-54
2022/12/13 07:34:28;;;;;;;;;;;19.10;36.60;;;;;;5012504;28;19965;-53
2022/12/13 07:36:54;;;;;;;;;;;19.00;36.60;;;;;;5003416;28;19959;-54
2022/12/13 07:39:22;;;;;;;;;;;19.00;36.80;;;;;;5003300;28;19955;-53
2022/12/13 07:41:47;;;;;;;;;;;18.90;36.90;;;;;;5004332;28;19918;-54
2022/12/13 07:44:13;;;;;;;;;;;18.90;36.90;;;;;;5002557;28;19917;-53
2022/12/13 07:46:38;;;;;;;;;;;18.70;37.10;;;;;;5005457;28;20343;-54
2022/12/13 07:49:04;;;;;;;;;;;18.70;37.40;;;;;;5002632;28;19936;-53
2022/12/13 07:51:31;;;;;;;;;;;18.60;37.60;;;;;;4999992;28;20343;-53
2022/12/13 07:53:57;;;;;;;;;;;18.60;37.80;;;;;;5016168;28;20522;-53
2022/12/13 07:56:22;;;;;;;;;;;18.60;37.90;;;;;;5010801;28;20012;-53
2022/12/13 07:58:48;;;;;;;;;;;18.60;37.80;;;;;;5012924;28;19924;-53
2022/12/13 08:01:13;;;;;;;;;;;18.60;37.80;;;;;;5002085;28;19968;-54
2022/12/13 08:03:39;;;;;;;;;;;18.60;37.80;;;;;;5002185;28;20271;-53
2022/12/13 08:06:05;;;;;;;;;;;18.70;37.70;;;;;;5001667;28;19933;-53
2022/12/13 08:08:30;;;;;;;;;;;18.80;37.60;;;;;;5001531;28;19931;-54
2022/12/13 08:11:03;;;;;;;;;;;18.80;37.50;;;;;;5015423;28;19923;-53
2022/12/13 08:13:28;;;;;;;;;;;18.90;37.30;;;;;;5018479;28;20407;-52
2022/12/13 08:15:58;;;;;;;;;;;18.90;37.40;;;;;;5004470;28;20020;-55
2022/12/13 08:18:24;;;;;;;;;;;19.00;37.20;;;;;;5006219;28;19922;-54
2022/12/13 08:20:49;;;;;;;;;;;19.00;36.90;;;;;;5001467;28;20750;-52
2022/12/13 08:23:14;;;;;;;;;;;19.10;36.90;;;;;;5009733;28;19939;-53
2022/12/13 08:25:40;;;;;;;;;;;19.10;37.30;;;;;;5007242;28;20070;-52
2022/12/13 08:28:05;;;;;;;;;;;19.00;37.40;;;;;;5002838;28;20114;-55
2022/12/13 08:30:31;;;;;;;;;;;19.00;37.50;;;;;;5007552;28;19918;-53
2022/12/13 08:32:56;;;;;;;;;;;18.90;37.70;;;;;;5001310;28;19921;-53
2022/12/13 08:35:22;;;;;;;;;;;18.80;37.70;;;;;;5002642;28;19918;-54
2022/12/13 08:37:47;;;;;;;;;;;18.80;37.90;;;;;;5025522;28;20004;-54
2022/12/13 08:40:13;;;;;;;;;;;18.70;37.90;;;;;;5004615;28;19949;-54
2022/12/13 08:42:38;;;;;;;;;;;18.70;38.00;;;;;;5012731;28;19925;-54
2022/12/13 08:45:04;;;;;;;;;;;18.70;38.00;;;;;;5001439;28;20415;-53
2022/12/13 08:47:29;;;;;;;;;;;18.70;38.20;;;;;;5005375;28;19928;-54
2022/12/13 08:49:57;;;;;;;;;;;18.70;38.20;;;;;;5002057;28;19978;-53
2022/12/13 08:52:23;;;;;;;;;;;18.60;37.90;;;;;;5003408;28;19937;-53
2022/12/13 08:54:48;;;;;;;;;;;18.60;38.30;;;;;;5000671;28;19963;-53
2022/12/13 08:57:14;;;;;;;;;;;18.60;38.30;;;;;;5000879;28;22004;-53
2022/12/13 08:59:40;;;;;;;;;;;18.60;38.20;;;;;;5002731;28;19913;-53
2022/12/13 09:02:05;;;;;;;;;;;18.60;38.30;;;;;;5002166;28;19918;-53
2022/12/13 09:04:30;;;;;;;;;;;18.60;38.20;;;;;;5002584;28;19967;-54
2022/12/13 09:06:56;;;;;;;;;;;18.70;38.30;;;;;;5001814;28;19955;-53
2022/12/13 09:09:21;;;;;;;;;;;18.70;38.10;;;;;;5017562;28;19928;-52
2022/12/13 09:11:47;;;;;;;;;;;18.70;38.10;;;;;;5001400;28;19921;-53
2022/12/13 09:14:12;;;;;;;;;;;18.70;38.00;;;;;;4999316;28;19921;-54
2022/12/13 09:16:37;;;;;;;;;;;18.80;38.00;;;;;;5006605;28;19924;-53
2022/12/13 09:19:04;;;;;;;;;;;18.80;38.00;;;;;;5002102;28;19909;-54
2022/12/13 09:21:29;;;;;;;;;;;18.80;38.00;;;;;;5000580;28;19930;-54
2022/12/13 09:23:55;;;;;;;;;;;18.80;37.90;;;;;;5002092;28;19940;-55
2022/12/13 09:26:20;;;;;;;;;;;18.90;37.90;;;;;;5003897;28;19917;-53
2022/12/13 09:28:46;;;;;;;;;;;18.90;37.90;;;;;;5006169;28;19981;-53
2022/12/13 09:31:15;;;;;;;;;;;18.90;38.00;;;;;;5004459;28;20384;-53
2022/12/13 09:33:40;;;;;;;;;;;18.80;38.00;;;;;;5004600;28;20258;-53
2022/12/13 09:36:06;;;;;;;;;;;18.80;38.10;;;;;;5002507;28;19914;-53
2022/12/13 09:38:32;;;;;;;;;;;18.70;38.20;;;;;;5004339;28;20009;-53
2022/12/13 09:40:58;;;;;;;;;;;18.70;38.50;;;;;;5010852;28;20295;-53
2022/12/13 09:43:24;;;;;;;;;;;18.70;38.40;;;;;;5005615;28;19917;-53
2022/12/13 09:45:50;;;;;;;;;;;18.60;38.30;;;;;;5004076;28;20322;-53
2022/12/13 09:48:19;;;;;;;;;;;18.60;38.70;;;;;;5004920;28;19928;-53
2022/12/13 09:50:45;;;;;;;;;;;18.60;38.70;;;;;;5004085;28;19926;-53
2022/12/13 09:53:10;;;;;;;;;;;18.60;38.80;;;;;;5026314;28;20403;-53
2022/12/13 09:55:37;;;;;;;;;;;18.70;38.70;;;;;;5005296;28;19986;-53
2022/12/13 09:58:05;;;;;;;;;;;18.70;38.70;;;;;;4994229;28;20364;-53
2022/12/13 10:00:33;;;;;;;;;;;18.70;38.70;;;;;;5003796;28;19913;-52
2022/12/13 10:02:59;;;;;;;;;;;18.60;38.70;;;;;;5003931;28;19928;-52
2022/12/13 10:05:36;;;;;;;;;;;18.60;38.80;;;;;;4987755;28;19918;-54
2022/12/13 10:08:12;;;;;;;;;;;18.60;39.00;;;;;;5006681;28;20362;-54
2022/12/13 10:10:37;;;;;;;;;;;18.50;39.00;;;;;;4993097;28;19917;-54
2022/12/13 10:13:03;;;;;;;;;;;18.50;39.00;;;;;;5014796;28;19922;-53
2022/12/13 10:15:28;;;;;;;;;;;18.40;39.10;;;;;;5004774;28;20009;-53
2022/12/13 10:17:53;;;;;;;;;;;18.40;39.20;;;;;;4994038;28;20340;-53
2022/12/13 10:20:19;;;;;;;;;;;18.40;39.30;;;;;;5010589;28;20366;-53
2022/12/13 10:22:45;;;;;;;;;;;18.40;39.40;;;;;;5003289;28;20293;-53
2022/12/13 10:25:10;;;;;;;;;;;18.30;39.40;;;;;;5003829;28;19956;-53
2022/12/13 10:27:40;;;;;;;;;;;18.30;39.60;;;;;;5004328;28;19918;-53
2022/12/13 10:30:06;;;;;;;;;;;18.20;39.50;;;;;;5030840;28;20238;-52
2022/12/13 10:32:35;;;;;;;;;;;18.20;39.60;;;;;;4985967;28;19918;-52
2022/12/13 10:35:10;;;;;;;;;;;18.20;39.60;;;;;;5001968;28;19959;-53
2022/12/13 10:37:35;;;;;;;;;;;18.20;39.60;;;;;;4996219;28;19917;-53
2022/12/13 10:40:01;;;;;;;;;;;18.20;39.60;;;;;;5003312;28;19980;-53
2022/12/13 10:42:26;;;;;;;;;;;18.30;39.60;;;;;;4989648;28;19944;-54
2022/12/13 10:45:10;;;;;;;;;;;18.30;39.40;;;;;;5016986;28;20284;-53
2022/12/13 10:47:36;;;;;;;;;;;18.30;39.30;;;;;;5002955;28;20370;-53
2022/12/13 10:50:01;;;;;;;;;;;18.40;39.30;;;;;;5003766;28;19920;-53
2022/12/13 10:52:28;;;;;;;;;;;18.50;39.20;;;;;;5004160;28;19924;-53
2022/12/13 10:54:54;;;;;;;;;;;18.50;39.00;;;;;;5003931;28;19913;-54
2022/12/13 10:57:20;;;;;;;;;;;18.50;39.00;;;;;;5002716;28;19921;-55
2022/12/13 10:59:46;;;;;;;;;;;18.50;38.90;;;;;;5004242;28;19920;-53
2022/12/13 11:02:28;;;;;;;;;;;18.50;38.80;;;;;;5001080;28;19914;-52
2022/12/13 11:04:53;;;;;;;;;;;18.60;38.80;;;;;;5004565;28;19921;-53
2022/12/13 11:07:23;;;;;;;;;;;18.60;38.80;;;;;;5000735;28;20323;-53
2022/12/13 11:09:48;;;;;;;;;;;18.60;38.40;;;;;;5014896;28;19921;-53
2022/12/13 11:12:15;;;;;;;;;;;18.50;38.80;;;;;;5000989;28;19913;-53
2022/12/13 11:14:47;;;;;;;;;;;18.50;39.00;;;;;;4987569;28;19920;-53
2022/12/13 11:17:14;;;;;;;;;;;18.40;38.90;;;;;;4991429;28;19947;-52
2022/12/13 11:19:39;;;;;;;;;;;18.40;39.60;;;;;;4988967;28;20556;-53
2022/12/13 11:22:06;;;;;;;;;;;18.30;39.40;;;;;;4992418;28;20127;-53
2022/12/13 11:24:32;;;;;;;;;;;18.30;38.70;;;;;;5007762;28;19921;-53
2022/12/13 11:26:58;;;;;;;;;;;18.30;39.60;;;;;;5014341;28;20008;-53
2022/12/13 11:29:34;;;;;;;;;;;18.30;38.70;;;;;;4990185;28;19925;-53
2022/12/13 11:31:59;;;;;;;;;;;18.40;38.60;;;;;;5067453;28;19944;-53
2022/12/13 11:34:37;;;;;;;;;;;18.90;37.80;;;;;;5000449;28;19922;-53
2022/12/13 11:37:25;;;;;;;;;;;19.50;37.00;;;;;;4992475;28;19974;-53
2022/12/13 11:39:53;;;;;;;;;;;20.00;36.00;;;;;;5001286;28;19983;-52
2022/12/13 11:42:19;;;;;;;;;;;20.50;35.30;;;;;;5004392;28;19957;-53
2022/12/13 11:44:44;;;;;;;;;;;20.80;34.80;;;;;;5007561;28;19956;-53
2022/12/13 11:47:17;;;;;;;;;;;21.20;34.50;;;;;;5009718;28;19914;-55
2022/12/13 11:49:44;;;;;;;;;;;21.40;34.50;;;;;;4992736;28;19948;-52
2022/12/13 11:52:17;;;;;;;;;;;21.50;33.70;;;;;;5006530;28;20288;-53
2022/12/13 11:54:43;;;;;;;;;;;21.60;33.50;;;;;;4987837;28;19957;-53
2022/12/13 11:57:12;;;;;;;;;;;21.60;33.30;;;;;;5004979;28;20392;-53
2022/12/13 11:59:45;;;;;;;;;;;21.70;33.40;;;;;;4983626;28;19966;-53
2022/12/13 12:02:30;;;;;;;;;;;21.80;33.20;;;;;;5013298;28;19913;-53
2022/12/13 12:04:55;;;;;;;;;;;21.80;33.20;;;;;;5005494;28;19953;-52
2022/12/13 12:07:36;;;;;;;;;;;21.80;33.10;;;;;;4999682;28;19971;-53
2022/12/13 12:10:20;;;;;;;;;;;21.90;33.20;;;;;;5006576;28;20383;-54
2022/12/13 12:12:47;;;;;;;;;;;21.90;33.00;;;;;;5008540;28;19967;-52
2022/12/13 12:15:29;;;;;;;;;;;22.00;33.00;;;;;;4997038;28;19928;-53
2022/12/13 12:17:55;;;;;;;;;;;22.00;33.00;;;;;;5006686;28;19932;-53
2022/12/13 12:20:36;;;;;;;;;;;22.10;32.90;;;;;;5004940;28;20428;-54
2022/12/13 12:23:21;;;;;;;;;;;22.10;32.90;;;;;;4983327;28;19922;-54
2022/12/13 12:25:52;;;;;;;;;;;22.10;32.90;;;;;;5072716;28;19922;-53
2022/12/13 12:28:21;;;;;;;;;;;22.10;32.80;;;;;;5008408;28;19928;-52
2022/12/13 12:30:54;;;;;;;;;;;22.10;32.70;;;;;;5017402;28;20273;-53
2022/12/13 12:33:43;;;;;;;;;;;22.10;32.70;;;;;;4993483;28;20412;-53
2022/12/13 12:36:26;;;;;;;;;;;22.20;32.60;;;;;;5006675;28;20425;-53
2022/12/13 12:39:04;;;;;;;;;;;22.30;32.60;;;;;;5027916;28;19917;-53
2022/12/13 12:41:48;;;;;;;;;;;22.20;32.60;;;;;;5010473;28;19919;-53
2022/12/13 12:44:33;;;;;;;;;;;22.20;32.50;;;;;;5005758;28;19924;-54
2022/12/13 12:47:02;;;;;;;;;;;22.20;32.60;;;;;;5012985;28;20385;-53
2022/12/13 12:49:46;;;;;;;;;;;22.30;32.50;;;;;;4985820;28;19918;-55
2022/12/13 12:52:14;;;;;;;;;;;22.30;32.60;;;;;;5007782;28;19913;-53
2022/12/13 12:55:01;;;;;;;;;;;22.30;32.60;;;;;;5005600;28;19948;-52
2022/12/13 12:57:33;;;;;;;;;;;22.30;32.60;;;;;;4992538;28;19920;-53
2022/12/13 12:59:58;;;;;;;;;;;22.40;32.60;;;;;;5011641;28;19940;-54
2022/12/13 13:02:34;;;;;;;;;;;22.40;32.70;;;;;;5010106;28;19913;-53
2022/12/13 13:05:02;;;;;;;;;;;22.40;32.60;;;;;;5026347;28;19918;-53
2022/12/13 13:07:28;;;;;;;;;;;22.40;32.50;;;;;;4994758;28;19945;-53
2022/12/13 13:09:53;;;;;;;;;;;22.40;32.50;;;;;;5024183;28;19995;-52
2022/12/13 13:12:19;;;;;;;;;;;22.50;32.50;;;;;;5023809;28;20350;-53
2022/12/13 13:14:44;;;;;;;;;;;22.50;32.60;;;;;;5005667;28;19940;-53
2022/12/13 13:17:13;;;;;;;;;;;22.50;32.70;;;;;;5000891;28;19914;-54
2022/12/13 13:19:39;;;;;;;;;;;22.40;32.80;;;;;;5005862;28;19992;-54
2022/12/13 13:22:13;;;;;;;;;;;22.50;32.60;;;;;;4993816;28;19921;-53
2022/12/13 13:24:38;;;;;;;;;;;22.50;32.80;;;;;;5000700;28;19922;-55
2022/12/13 13:27:07;;;;;;;;;;;22.50;32.70;;;;;;5010834;28;19970;-55
2022/12/13 13:29:33;;;;;;;;;;;22.50;32.60;;;;;;5009356;28;20333;-55
2022/12/13 13:31:58;;;;;;;;;;;22.50;32.60;;;;;;5016432;28;19913;-55
2022/12/13 13:34:24;;;;;;;;;;;22.60;32.60;;;;;;5009445;28;19918;-55
2022/12/13 13:36:51;;;;;;;;;;;22.50;32.60;;;;;;5011346;28;19924;-54
2022/12/13 13:39:18;;;;;;;;;;;22.50;32.50;;;;;;5009597;28;19914;-54
2022/12/13 13:41:55;;;;;;;;;;;22.50;32.40;;;;;;5009479;28;20418;-54
2022/12/13 13:44:33;;;;;;;;;;;22.50;32.20;;;;;;5009438;28;20062;-55
2022/12/13 13:47:08;;;;;;;;;;;22.60;32.50;;;;;;5005227;28;19918;-54
2022/12/13 13:49:34;;;;;;;;;;;22.60;32.50;;;;;;5005033;28;19931;-54
2022/12/13 13:51:59;;;;;;;;;;;22.60;32.50;;;;;;4990114;28;19913;-55
2022/12/13 13:54:43;;;;;;;;;;;22.60;32.60;;;;;;5005802;28;19914;-54
2022/12/13 13:57:27;;;;;;;;;;;22.60;32.60;;;;;;5008965;28;20420;-54
2022/12/13 13:59:56;;;;;;;;;;;22.60;32.80;;;;;;5010544;28;19918;-55
2022/12/13 14:02:40;;;;;;;;;;;22.60;32.70;;;;;;5014151;28;19967;-54
2022/12/13 14:05:24;;;;;;;;;;;22.60;32.50;;;;;;5006663;28;19937;-55
2022/12/13 14:08:08;;;;;;;;;;;22.60;32.60;;;;;;4999451;28;19952;-54
2022/12/13 14:10:43;;;;;;;;;;;22.60;32.60;;;;;;5009345;28;20388;-55
2022/12/13 14:13:12;;;;;;;;;;;22.60;32.70;;;;;;4999553;28;19925;-55
2022/12/13 14:15:49;;;;;;;;;;;22.60;32.60;;;;;;5000149;28;19967;-54
2022/12/13 14:18:44;;;;;;;;;;;22.70;32.70;;;;;;5005204;28;20389;-54
2022/12/13 14:21:13;;;;;;;;;;;22.70;32.80;;;;;;4994337;28;19925;-55
2022/12/13 14:23:58;;;;;;;;;;;22.70;32.70;;;;;;5009975;28;20437;-54
2022/12/13 14:26:42;;;;;;;;;;;22.70;32.60;;;;;;5001657;28;20318;-53
2022/12/13 14:29:15;;;;;;;;;;;22.70;32.60;;;;;;5000558;28;20030;-53